Nancy Foster — WTER — position and weather

sailwx.info

Track history (hours):
 
Tides and Currents Weather Stations Pressure Air Temp Water Temp Dewpoint Dewpoint Depression Visibility Wind Speed Wind Dir Waves Ship Positions

Oceanographic research ship Nancy Foster (USA)

Detailed information on ship capabilities available from University of Delaware's Ocean Information Center.

Last reported at 2017-Aug-18 00:48 UTC. Time now 2017-Aug-18 02:43 UTC.
Position N 26°12' W 084°36'.

Type: Other ship. MMSI: 369912000.

Wind from 080 at 6 knots

Barometer 1018.1 mb
Air temperature 29.9 ° C
Water temperature 31.1 ° C

Date/timePositionNaut miles runAvg speedWind from/ knotsBaromVisibWave heightAir tempDewpointWater temp
2017-Aug-18 00:48N 26°12' W 084°36'8 4.1 080 / 61018.1 29.9 31.1
2017-Aug-17 22:50N 26°18' W 084°42'0 0.0 030 / 61018.3 30.5 31.2
2017-Aug-17 21:51N 26°18' W 084°42'0 0.0 030 / 71018.0 30.4 31.3
2017-Aug-17 20:52N 26°18' W 084°42'0 0.0 030 / 81018.2 30.2 31.2
2017-Aug-17 19:53N 26°18' W 084°42'0 0.0 050 / 61018.4 29.9 31.4
2017-Aug-17 18:54N 26°18' W 084°42'0 0.0 050 / 41019.2 30.6 31.3
2017-Aug-17 17:54N 26°18' W 084°42'0 0.0 040 / 81019.5 30.6 31.3
2017-Aug-17 16:55N 26°18' W 084°42'0 0.0 050 / 61019.6 30.5 31.2
2017-Aug-17 15:56N 26°18' W 084°42'0 0.0 050 / 61019.9 30.5 31.1
2017-Aug-17 14:57N 26°18' W 084°42'0 0.0 040 / 51019.8 30.2 31.0
2017-Aug-17 13:58N 26°18' W 084°42'5 5.5 060 / 71019.7 30.8 30.9
2017-Aug-17 12:59N 26°18' W 084°36'12 1.0 060 / 61019.5 29.9 30.6
2017-Aug-17 00:48N 26°06' W 084°36'5 2.7 080 / 91018.3 30.0 31.0
2017-Aug-16 22:50N 26°06' W 084°42'0 0.0 070 / 61018.6 30.4 31.3
2017-Aug-16 21:51N 26°06' W 084°42'0 0.0 060 / 81018.5 30.4 31.2
2017-Aug-16 20:52N 26°06' W 084°42'0 0.0 060 / 51018.8 32.0 31.2
2017-Aug-16 19:53N 26°06' W 084°42'0 0.0 060 / 71019.0 31.0 31.4
2017-Aug-16 18:54N 26°06' W 084°42'6 6.1 030 / 61019.1 31.1 31.2
2017-Aug-16 17:55N 26°12' W 084°42'0 0.0 050 / 71019.8 30.3 31.1
2017-Aug-16 16:56N 26°12' W 084°42'0 0.0 070 / 61020.3 30.6 31.1
2017-Aug-16 15:56N 26°12' W 084°42'0 0.0 060 / 41020.4 30.5 31.0
2017-Aug-16 14:57N 26°12' W 084°42'0 0.0 040 / 51020.4 30.8 30.7
2017-Aug-16 13:58N 26°12' W 084°42'0 0.0 060 / 31019.8 30.6 30.5
2017-Aug-16 12:59N 26°12' W 084°42'6 0.3 100 / 21019.4 31.7 30.5
2017-Aug-15 19:49N 26°18' W 084°42'0 0.0 120 / 31017.3 34.0 31.9
2017-Aug-15 18:50N 26°18' W 084°42'0 0.0 1017.6 34.3 31.8
2017-Aug-15 17:51N 26°18' W 084°42'0 0.0 130 / 21017.9 33.3 31.5
2017-Aug-15 16:51N 26°18' W 084°42'0 0.0 320 / 11018.1 31.1 31.1
2017-Aug-15 15:51N 26°18' W 084°42'0 0.0 180 / 11018.0 30.5 30.9
2017-Aug-15 14:51N 26°18' W 084°42'0 0.0 220 / 11017.6 29.9 30.6
2017-Aug-15 13:52N 26°18' W 084°42'0 0.0 180 / 31017.1 30.8 30.6
2017-Aug-15 12:52N 26°18' W 084°42'0 0.0 180 / 21017.1 30.0 30.5
2017-Aug-15 11:52N 26°18' W 084°42'0 0.0 170 / 21016.2 29.2 30.6
2017-Aug-15 10:54N 26°18' W 084°42'0 0.0 180 / 21015.8 29.2 30.5
2017-Aug-15 09:54N 26°18' W 084°42'6 6.0 170 / 51015.5 29.5 30.5
2017-Aug-15 08:54N 26°12' W 084°42'6 6.0 190 / 51015.0 29.3 30.6
2017-Aug-15 07:54N 26°18' W 084°42'6 6.0 190 / 51015.0 29.2 30.7
2017-Aug-15 06:54N 26°12' W 084°42'8 8.2 200 / 41015.7 29.3 30.7
2017-Aug-15 05:55N 26°06' W 084°36'6 6.0 180 / 31016.3 29.4 30.8
2017-Aug-15 04:55N 26°12' W 084°36'6 6.0 180 / 21016.6 29.5 30.8
2017-Aug-15 03:55N 26°18' W 084°36'0 0.0 160 / 31016.8 29.6 30.6
2017-Aug-15 02:55N 26°18' W 084°36'6 6.0 190 / 11016.6 29.7 30.8
2017-Aug-15 01:55N 26°12' W 084°36'6 6.0 180 / 31016.3 29.8 30.7
2017-Aug-15 00:55N 26°18' W 084°36'8 4.1 160 / 41016.1 29.8 30.8
2017-Aug-14 22:56N 26°24' W 084°42'6 3.0 190 / 51015.6 32.1 31.5
2017-Aug-14 20:56N 26°18' W 084°42'0 0.0 220 / 11015.8 31.1 31.5
2017-Aug-14 19:56N 26°18' W 084°42'6 6.1 180 / 11016.1 32.5 31.4
2017-Aug-14 18:57N 26°24' W 084°42'0 0.0 160 / 21016.5 31.3 31.7
2017-Aug-14 17:57N 26°24' W 084°42'0 0.0 220 / 11017.1 30.9 31.1
2017-Aug-14 16:57N 26°24' W 084°42'0 0.0 210 / 11017.1 30.9 31.0
2017-Aug-14 15:57N 26°24' W 084°42'0 0.0 140 / 31017.1 31.4 30.5
2017-Aug-14 14:58N 26°24' W 084°42'0 0.0 260 / 21017.0 29.3 30.5
2017-Aug-14 13:58N 26°24' W 084°42'0 0.0 220 / 31016.7 29.8 30.4
2017-Aug-14 12:59N 26°24' W 084°42'138 3.3 210 / 21016.2 29.8 30.5
2017-Aug-12 18:32N 27°42' W 082°33'2 9.3
2017-Aug-12 18:22N 27°43' W 082°32'3 9.4
2017-Aug-12 18:00N 27°46' W 082°31'4 8.1
2017-Aug-12 17:31N 27°47' W 082°36'2 3.6
2017-Aug-12 16:56N 27°46' W 082°38'0 0.0
2017-Aug-12 16:29N 27°46' W 082°38'0 0.0
2017-Aug-12 15:59N 27°46' W 082°38'0 0.0
2017-Aug-12 15:29N 27°46' W 082°38'0 0.0
2017-Aug-12 14:59N 27°46' W 082°38'0 0.0
2017-Aug-12 14:29N 27°46' W 082°38'0 0.0
2017-Aug-12 13:53N 27°46' W 082°38'0 0.0
2017-Aug-12 13:20N 27°46' W 082°38'0 0.0
2017-Aug-12 12:59N 27°46' W 082°38'0 0.0
2017-Aug-12 12:29N 27°46' W 082°38'0 0.0
2017-Aug-12 11:59N 27°46' W 082°38'0 0.0
2017-Aug-12 11:29N 27°46' W 082°38'0 0.0
2017-Aug-12 10:59N 27°46' W 082°38'0 0.0
2017-Aug-12 10:23N 27°46' W 082°38'0 0.0
2017-Aug-12 09:56N 27°46' W 082°38'0 0.0
2017-Aug-12 09:23N 27°46' W 082°38'0 0.0
2017-Aug-12 08:59N 27°46' W 082°38'0 0.0
2017-Aug-12 08:26N 27°46' W 082°38'0 0.0
2017-Aug-12 07:56N 27°46' W 082°38'0 0.0
2017-Aug-12 07:29N 27°46' W 082°38'0 0.0
2017-Aug-12 06:56N 27°46' W 082°38'0 0.0
2017-Aug-12 06:29N 27°46' W 082°38'0 0.0
2017-Aug-12 05:56N 27°46' W 082°38'0 0.0
2017-Aug-12 05:20N 27°46' W 082°38'0 0.0
2017-Aug-12 04:59N 27°46' W 082°38'0 0.0
2017-Aug-12 04:29N 27°46' W 082°38'0 0.0
2017-Aug-12 03:59N 27°46' W 082°38'0 0.0
2017-Aug-12 03:29N 27°46' W 082°38'0 0.0
2017-Aug-12 02:59N 27°46' W 082°38'0 0.0
2017-Aug-12 02:29N 27°46' W 082°38'0 0.0
2017-Aug-12 01:59N 27°46' W 082°38'0 0.0
2017-Aug-12 01:26N 27°46' W 082°38'0 0.0
2017-Aug-12 00:56N 27°46' W 082°38'0 0.0
2017-Aug-12 00:29N 27°46' W 082°38'0 0.0
2017-Aug-11 23:59N 27°46' W 082°38'0 0.0
2017-Aug-11 23:26N 27°46' W 082°38'0 0.0
2017-Aug-11 22:59N 27°46' W 082°38'0 0.0
2017-Aug-11 22:29N 27°46' W 082°38'0 0.0
2017-Aug-11 21:59N 27°46' W 082°38'0 0.0
2017-Aug-11 21:26N 27°46' W 082°38'0 0.0
2017-Aug-11 20:47N 27°46' W 082°38'0 0.0
2017-Aug-11 20:23N 27°46' W 082°38'0 0.0
2017-Aug-11 19:59N 27°46' W 082°38'0 0.0
2017-Aug-11 19:26N 27°46' W 082°38'0 0.0
2017-Aug-11 18:59N 27°46' W 082°38'0 0.0
2017-Aug-11 18:29N 27°46' W 082°38'0 0.0
2017-Aug-11 17:56N 27°46' W 082°38'0 0.0
2017-Aug-11 17:29N 27°46' W 082°38'0 0.0
2017-Aug-11 16:53N 27°46' W 082°38'0 0.0
2017-Aug-11 16:29N 27°46' W 082°38'0 0.0
2017-Aug-11 15:59N 27°46' W 082°38'0 0.0
2017-Aug-11 15:29N 27°46' W 082°38'0 0.0
2017-Aug-11 14:59N 27°46' W 082°38'0 0.0
2017-Aug-11 14:29N 27°46' W 082°38'0 0.0
2017-Aug-11 13:29N 27°46' W 082°38'0 0.0
2017-Aug-11 12:59N 27°46' W 082°38'0 0.0
2017-Aug-11 12:29N 27°46' W 082°38'0 0.0
2017-Aug-11 11:59N 27°46' W 082°38'0 0.0
2017-Aug-11 11:29N 27°46' W 082°38'0 0.0
2017-Aug-11 10:59N 27°46' W 082°38'0 0.0
2017-Aug-11 10:29N 27°46' W 082°38'0 0.0
2017-Aug-11 09:59N 27°46' W 082°38'0 0.0
2017-Aug-11 09:29N 27°46' W 082°38'0 0.0
2017-Aug-11 08:59N 27°46' W 082°38'0 0.0
2017-Aug-11 08:23N 27°46' W 082°38'0 0.0
2017-Aug-11 07:59N 27°46' W 082°38'0 0.0
2017-Aug-11 07:29N 27°46' W 082°38'0 0.0
2017-Aug-11 06:59N 27°46' W 082°38'0 0.0
2017-Aug-11 06:29N 27°46' W 082°38'0 0.0
2017-Aug-11 05:56N 27°46' W 082°38'0 0.0
2017-Aug-11 05:29N 27°46' W 082°38'0 0.0
2017-Aug-11 04:56N 27°46' W 082°38'0 0.0
2017-Aug-11 04:29N 27°46' W 082°38'0 0.0
2017-Aug-11 03:53N 27°46' W 082°38'0 0.0
2017-Aug-11 03:26N 27°46' W 082°38'0 0.0
2017-Aug-11 02:59N 27°46' W 082°38'0 0.0
2017-Aug-11 02:29N 27°46' W 082°38'0 0.0
2017-Aug-11 01:59N 27°46' W 082°38'0 0.0
2017-Aug-11 01:29N 27°46' W 082°38'0 0.0
2017-Aug-11 00:59N 27°46' W 082°38'0 0.0
2017-Aug-11 00:29N 27°46' W 082°38'0 0.0
2017-Aug-10 23:59N 27°46' W 082°38'0 0.0
2017-Aug-10 23:29N 27°46' W 082°38'0 0.0
2017-Aug-10 22:59N 27°46' W 082°38'0 0.0
2017-Aug-10 22:29N 27°46' W 082°38'0 0.0
2017-Aug-10 21:59N 27°46' W 082°38'0 0.0
2017-Aug-10 21:29N 27°46' W 082°38'0 0.0
2017-Aug-10 20:59N 27°46' W 082°38'0 0.0
2017-Aug-10 20:29N 27°46' W 082°38'0 0.0
2017-Aug-10 19:56N 27°46' W 082°38'0 0.0
2017-Aug-10 19:29N 27°46' W 082°38'0 0.0
2017-Aug-10 18:56N 27°46' W 082°38'0 0.0
2017-Aug-10 18:26N 27°46' W 082°38'0 0.0
2017-Aug-10 17:56N 27°46' W 082°38'0 0.0
2017-Aug-10 17:14N 27°46' W 082°38'0 0.0
2017-Aug-10 16:59N 27°46' W 082°38'0 0.0
2017-Aug-10 16:14N 27°46' W 082°38'0 0.0
2017-Aug-10 15:56N 27°46' W 082°38'0 0.0
2017-Aug-10 15:29N 27°46' W 082°38'0 0.0
2017-Aug-10 14:53N 27°46' W 082°38'0 0.0
2017-Aug-10 14:29N 27°46' W 082°38'0 0.0
2017-Aug-10 13:56N 27°46' W 082°38'0 0.0
2017-Aug-10 13:29N 27°46' W 082°38'0 0.0
2017-Aug-10 12:59N 27°46' W 082°38'0 0.0
2017-Aug-10 12:29N 27°46' W 082°38'0 0.0
2017-Aug-09 12:11N 27°46' W 082°38'4 3.0
2017-Aug-09 10:51N 27°42' W 082°36'0 0.0 070 / 21017.2 26.7
2017-Aug-09 09:52N 27°42' W 082°36'0 0.0 090 / 51016.6 26.8
2017-Aug-09 08:52N 27°42' W 082°36'0 0.0 180 1016.5 26.3
2017-Aug-09 07:52N 27°42' W 082°36'4 7.1 1016.4 26.2
2017-Aug-09 07:17N 27°46' W 082°38'410.3
2017-Aug-09 06:54N 27°42' W 082°36'437.9 220 / 11016.8 25.6
2017-Aug-09 06:47N 27°46' W 082°38'4 4.6
2017-Aug-09 05:55N 27°42' W 082°36'0 0.0 130 / 61017.4 27.0
2017-Aug-09 04:55N 27°42' W 082°36'0 0.0 360 / 61017.7 24.5
2017-Aug-09 03:55N 27°42' W 082°36'0 0.0 140 / 371017.0 25.7
2017-Aug-09 02:55N 27°42' W 082°36'0 0.0 350 / 51018.2 29.8
2017-Aug-09 01:56N 27°42' W 082°36'0 0.0 350 / 31017.1 30.1
2017-Aug-09 00:56N 27°42' W 082°36'0 0.0 340 / 41016.9 30.5
2017-Aug-08 22:56N 27°42' W 082°36'0 0.0 340 / 81015.7 32.1
2017-Aug-08 21:56N 27°42' W 082°36'0 0.0 250 / 31015.7 30.9
2017-Aug-08 20:56N 27°42' W 082°36'0 0.0 280 / 61015.7 31.9
2017-Aug-08 19:56N 27°42' W 082°36'0 0.0 230 / 71015.9 31.7
2017-Aug-08 18:57N 27°42' W 082°36'0 0.0 220 / 101016.4 32.2 31.2
2017-Aug-08 17:57N 27°42' W 082°36'410.0 140 / 41017.1 33.3 31.0
2017-Aug-08 17:32N 27°46' W 082°38'0 0.0
2017-Aug-08 17:28N 27°46' W 082°38'1 2.0
2017-Aug-08 17:00N 27°46' W 082°37'476.4
2017-Aug-08 16:58N 27°42' W 082°36'612.7 200 / 51017.3 30.4 31.2
2017-Aug-08 16:30N 27°47' W 082°33'4 8.3
2017-Aug-08 16:00N 27°43' W 082°32'247.5
2017-Aug-08 15:58N 27°42' W 082°30'713.9 150 / 81017.5 30.7 31.0
2017-Aug-08 15:29N 27°39' W 082°37'610.7
2017-Aug-08 14:58N 27°36' W 082°42'1110.6 140 / 61017.8 29.6 30.9
2017-Aug-08 13:58N 27°36' W 082°54'6 6.0 130 / 121017.0 29.1 30.8
2017-Aug-08 12:58N 27°30' W 082°54'1212.0 130 / 111016.9 28.8 30.7
2017-Aug-08 11:58N 27°18' W 082°54'1212.0 090 / 81016.2 28.6 30.7
2017-Aug-08 10:58N 27°06' W 082°54'1313.1 080 / 81016.0 28.5 30.5
2017-Aug-08 09:58N 26°54' W 083°00'6 6.0 090 / 101015.4 28.7 30.1
2017-Aug-08 08:58N 26°48' W 083°00'1313.1 100 / 131015.2 28.8 30.3
2017-Aug-08 07:58N 26°36' W 082°54'1212.2 100 / 111015.5 28.9 30.3
2017-Aug-08 06:59N 26°24' W 082°54'1212.0 110 / 101016.1 28.4 30.5
2017-Aug-08 05:59N 26°12' W 082°54'1212.0 120 / 61016.3 29.5 30.5
2017-Aug-08 04:59N 26°00' W 082°54'8 8.1 110 / 111017.2 29.6 30.3
2017-Aug-08 03:59N 25°54' W 082°48'1212.0 110 / 101017.5 29.8 30.5
2017-Aug-08 02:59N 25°42' W 082°48'1212.0 130 / 131017.2 29.8 30.5
2017-Aug-08 01:59N 25°30' W 082°48'1212.0 140 / 141015.8 29.7 30.5
2017-Aug-08 00:59N 25°18' W 082°48'   130 / 151015.4 29.4 30.4
Track history (hours):
 
Tides and Currents Weather Stations Pressure Air Temp Water Temp Dewpoint Dewpoint Depression Visibility Wind Speed Wind Dir Waves Ship Positions

Oceanographic research ship Nancy Foster (USA)

Detailed information on ship capabilities available from University of Delaware's Ocean Information Center.

Last reported at 2017-Aug-18 00:48 UTC. Time now 2017-Aug-18 02:43 UTC.
Position N 26°12' W 084°36'.

Type: Other ship. MMSI: 369912000.

Wind from 080 at 6 knots

Barometer 1018.1 mb
Air temperature 29.9 ° C
Water temperature 31.1 ° C

Date/timePositionNaut miles runAvg speedWind from/ knotsBaromVisibWave heightAir tempDewpointWater temp
2017-Aug-18 00:48N 26°12' W 084°36'8 4.1 080 / 61018.1 29.9 31.1
2017-Aug-17 22:50N 26°18' W 084°42'0 0.0 030 / 61018.3 30.5 31.2
2017-Aug-17 21:51N 26°18' W 084°42'0 0.0 030 / 71018.0 30.4 31.3
2017-Aug-17 20:52N 26°18' W 084°42'0 0.0 030 / 81018.2 30.2 31.2
2017-Aug-17 19:53N 26°18' W 084°42'0 0.0 050 / 61018.4 29.9 31.4
2017-Aug-17 18:54N 26°18' W 084°42'0 0.0 050 / 41019.2 30.6 31.3
2017-Aug-17 17:54N 26°18' W 084°42'0 0.0 040 / 81019.5 30.6 31.3
2017-Aug-17 16:55N 26°18' W 084°42'0 0.0 050 / 61019.6 30.5 31.2
2017-Aug-17 15:56N 26°18' W 084°42'0 0.0 050 / 61019.9 30.5 31.1
2017-Aug-17 14:57N 26°18' W 084°42'0 0.0 040 / 51019.8 30.2 31.0
2017-Aug-17 13:58N 26°18' W 084°42'5 5.5 060 / 71019.7 30.8 30.9
2017-Aug-17 12:59N 26°18' W 084°36'12 1.0 060 / 61019.5 29.9 30.6
2017-Aug-17 00:48N 26°06' W 084°36'5 2.7 080 / 91018.3 30.0 31.0
2017-Aug-16 22:50N 26°06' W 084°42'0 0.0 070 / 61018.6 30.4 31.3
2017-Aug-16 21:51N 26°06' W 084°42'0 0.0 060 / 81018.5 30.4 31.2
2017-Aug-16 20:52N 26°06' W 084°42'0 0.0 060 / 51018.8 32.0 31.2
2017-Aug-16 19:53N 26°06' W 084°42'0 0.0 060 / 71019.0 31.0 31.4
2017-Aug-16 18:54N 26°06' W 084°42'6 6.1 030 / 61019.1 31.1 31.2
2017-Aug-16 17:55N 26°12' W 084°42'0 0.0 050 / 71019.8 30.3 31.1
2017-Aug-16 16:56N 26°12' W 084°42'0 0.0 070 / 61020.3 30.6 31.1
2017-Aug-16 15:56N 26°12' W 084°42'0 0.0 060 / 41020.4 30.5 31.0
2017-Aug-16 14:57N 26°12' W 084°42'0 0.0 040 / 51020.4 30.8 30.7
2017-Aug-16 13:58N 26°12' W 084°42'0 0.0 060 / 31019.8 30.6 30.5
2017-Aug-16 12:59N 26°12' W 084°42'6 0.3 100 / 21019.4 31.7 30.5
2017-Aug-15 19:49N 26°18' W 084°42'0 0.0 120 / 31017.3 34.0 31.9
2017-Aug-15 18:50N 26°18' W 084°42'0 0.0 1017.6 34.3 31.8
2017-Aug-15 17:51N 26°18' W 084°42'0 0.0 130 / 21017.9 33.3 31.5
2017-Aug-15 16:51N 26°18' W 084°42'0 0.0 320 / 11018.1 31.1 31.1
2017-Aug-15 15:51N 26°18' W 084°42'0 0.0 180 / 11018.0 30.5 30.9
2017-Aug-15 14:51N 26°18' W 084°42'0 0.0 220 / 11017.6 29.9 30.6
2017-Aug-15 13:52N 26°18' W 084°42'0 0.0 180 / 31017.1 30.8 30.6
2017-Aug-15 12:52N 26°18' W 084°42'0 0.0 180 / 21017.1 30.0 30.5
2017-Aug-15 11:52N 26°18' W 084°42'0 0.0 170 / 21016.2 29.2 30.6
2017-Aug-15 10:54N 26°18' W 084°42'0 0.0 180 / 21015.8 29.2 30.5
2017-Aug-15 09:54N 26°18' W 084°42'6 6.0 170 / 51015.5 29.5 30.5
2017-Aug-15 08:54N 26°12' W 084°42'6 6.0 190 / 51015.0 29.3 30.6
2017-Aug-15 07:54N 26°18' W 084°42'6 6.0 190 / 51015.0 29.2 30.7
2017-Aug-15 06:54N 26°12' W 084°42'8 8.2 200 / 41015.7 29.3 30.7
2017-Aug-15 05:55N 26°06' W 084°36'6 6.0 180 / 31016.3 29.4 30.8
2017-Aug-15 04:55N 26°12' W 084°36'6 6.0 180 / 21016.6 29.5 30.8
2017-Aug-15 03:55N 26°18' W 084°36'0 0.0 160 / 31016.8 29.6 30.6
2017-Aug-15 02:55N 26°18' W 084°36'6 6.0 190 / 11016.6 29.7 30.8
2017-Aug-15 01:55N 26°12' W 084°36'6 6.0 180 / 31016.3 29.8 30.7
2017-Aug-15 00:55N 26°18' W 084°36'8 4.1 160 / 41016.1 29.8 30.8
2017-Aug-14 22:56N 26°24' W 084°42'6 3.0 190 / 51015.6 32.1 31.5
2017-Aug-14 20:56N 26°18' W 084°42'0 0.0 220 / 11015.8 31.1 31.5
2017-Aug-14 19:56N 26°18' W 084°42'6 6.1 180 / 11016.1 32.5 31.4
2017-Aug-14 18:57N 26°24' W 084°42'0 0.0 160 / 21016.5 31.3 31.7
2017-Aug-14 17:57N 26°24' W 084°42'0 0.0 220 / 11017.1 30.9 31.1
2017-Aug-14 16:57N 26°24' W 084°42'0 0.0 210 / 11017.1 30.9 31.0
2017-Aug-14 15:57N 26°24' W 084°42'0 0.0 140 / 31017.1 31.4 30.5
2017-Aug-14 14:58N 26°24' W 084°42'0 0.0 260 / 21017.0 29.3 30.5
2017-Aug-14 13:58N 26°24' W 084°42'0 0.0 220 / 31016.7 29.8 30.4
2017-Aug-14 12:59N 26°24' W 084°42'138 3.3 210 / 21016.2 29.8 30.5
2017-Aug-12 18:32N 27°42' W 082°33'2 9.3
2017-Aug-12 18:22N 27°43' W 082°32'3 9.4
2017-Aug-12 18:00N 27°46' W 082°31'4 8.1
2017-Aug-12 17:31N 27°47' W 082°36'2 3.6
2017-Aug-12 16:56N 27°46' W 082°38'0 0.0
2017-Aug-12 16:29N 27°46' W 082°38'0 0.0
2017-Aug-12 15:59N 27°46' W 082°38'0 0.0
2017-Aug-12 15:29N 27°46' W 082°38'0 0.0
2017-Aug-12 14:59N 27°46' W 082°38'0 0.0
2017-Aug-12 14:29N 27°46' W 082°38'0 0.0
2017-Aug-12 13:53N 27°46' W 082°38'0 0.0
2017-Aug-12 13:20N 27°46' W 082°38'0 0.0
2017-Aug-12 12:59N 27°46' W 082°38'0 0.0
2017-Aug-12 12:29N 27°46' W 082°38'0 0.0
2017-Aug-12 11:59N 27°46' W 082°38'0 0.0
2017-Aug-12 11:29N 27°46' W 082°38'0 0.0
2017-Aug-12 10:59N 27°46' W 082°38'0 0.0
2017-Aug-12 10:23N 27°46' W 082°38'0 0.0
2017-Aug-12 09:56N 27°46' W 082°38'0 0.0
2017-Aug-12 09:23N 27°46' W 082°38'0 0.0
2017-Aug-12 08:59N 27°46' W 082°38'0 0.0
2017-Aug-12 08:26N 27°46' W 082°38'0 0.0
2017-Aug-12 07:56N 27°46' W 082°38'0 0.0
2017-Aug-12 07:29N 27°46' W 082°38'0 0.0
2017-Aug-12 06:56N 27°46' W 082°38'0 0.0
2017-Aug-12 06:29N 27°46' W 082°38'0 0.0
2017-Aug-12 05:56N 27°46' W 082°38'0 0.0
2017-Aug-12 05:20N 27°46' W 082°38'0 0.0
2017-Aug-12 04:59N 27°46' W 082°38'0 0.0
2017-Aug-12 04:29N 27°46' W 082°38'0 0.0
2017-Aug-12 03:59N 27°46' W 082°38'0 0.0
2017-Aug-12 03:29N 27°46' W 082°38'0 0.0
2017-Aug-12 02:59N 27°46' W 082°38'0 0.0
2017-Aug-12 02:29N 27°46' W 082°38'0 0.0
2017-Aug-12 01:59N 27°46' W 082°38'0 0.0
2017-Aug-12 01:26N 27°46' W 082°38'0 0.0
2017-Aug-12 00:56N 27°46' W 082°38'0 0.0
2017-Aug-12 00:29N 27°46' W 082°38'0 0.0
2017-Aug-11 23:59N 27°46' W 082°38'0 0.0
2017-Aug-11 23:26N 27°46' W 082°38'0 0.0
2017-Aug-11 22:59N 27°46' W 082°38'0 0.0
2017-Aug-11 22:29N 27°46' W 082°38'0 0.0
2017-Aug-11 21:59N 27°46' W 082°38'0 0.0
2017-Aug-11 21:26N 27°46' W 082°38'0 0.0
2017-Aug-11 20:47N 27°46' W 082°38'0 0.0
2017-Aug-11 20:23N 27°46' W 082°38'0 0.0
2017-Aug-11 19:59N 27°46' W 082°38'0 0.0
2017-Aug-11 19:26N 27°46' W 082°38'0 0.0
2017-Aug-11 18:59N 27°46' W 082°38'0 0.0
2017-Aug-11 18:29N 27°46' W 082°38'0 0.0
2017-Aug-11 17:56N 27°46' W 082°38'0 0.0
2017-Aug-11 17:29N 27°46' W 082°38'0 0.0
2017-Aug-11 16:53N 27°46' W 082°38'0 0.0
2017-Aug-11 16:29N 27°46' W 082°38'0 0.0
2017-Aug-11 15:59N 27°46' W 082°38'0 0.0
2017-Aug-11 15:29N 27°46' W 082°38'0 0.0
2017-Aug-11 14:59N 27°46' W 082°38'0 0.0
2017-Aug-11 14:29N 27°46' W 082°38'0 0.0
2017-Aug-11 13:29N 27°46' W 082°38'0 0.0
2017-Aug-11 12:59N 27°46' W 082°38'0 0.0
2017-Aug-11 12:29N 27°46' W 082°38'0 0.0
2017-Aug-11 11:59N 27°46' W 082°38'0 0.0
2017-Aug-11 11:29N 27°46' W 082°38'0 0.0
2017-Aug-11 10:59N 27°46' W 082°38'0 0.0
2017-Aug-11 10:29N 27°46' W 082°38'0 0.0
2017-Aug-11 09:59N 27°46' W 082°38'0 0.0
2017-Aug-11 09:29N 27°46' W 082°38'0 0.0
2017-Aug-11 08:59N 27°46' W 082°38'0 0.0
2017-Aug-11 08:23N 27°46' W 082°38'0 0.0
2017-Aug-11 07:59N 27°46' W 082°38'0 0.0
2017-Aug-11 07:29N 27°46' W 082°38'0 0.0
2017-Aug-11 06:59N 27°46' W 082°38'0 0.0
2017-Aug-11 06:29N 27°46' W 082°38'0 0.0
2017-Aug-11 05:56N 27°46' W 082°38'0 0.0
2017-Aug-11 05:29N 27°46' W 082°38'0 0.0
2017-Aug-11 04:56N 27°46' W 082°38'0 0.0
2017-Aug-11 04:29N 27°46' W 082°38'0 0.0
2017-Aug-11 03:53N 27°46' W 082°38'0 0.0
2017-Aug-11 03:26N 27°46' W 082°38'0 0.0
2017-Aug-11 02:59N 27°46' W 082°38'0 0.0
2017-Aug-11 02:29N 27°46' W 082°38'0 0.0
2017-Aug-11 01:59N 27°46' W 082°38'0 0.0
2017-Aug-11 01:29N 27°46' W 082°38'0 0.0
2017-Aug-11 00:59N 27°46' W 082°38'0 0.0
2017-Aug-11 00:29N 27°46' W 082°38'0 0.0
2017-Aug-10 23:59N 27°46' W 082°38'0 0.0
2017-Aug-10 23:29N 27°46' W 082°38'0 0.0
2017-Aug-10 22:59N 27°46' W 082°38'0 0.0
2017-Aug-10 22:29N 27°46' W 082°38'0 0.0
2017-Aug-10 21:59N 27°46' W 082°38'0 0.0
2017-Aug-10 21:29N 27°46' W 082°38'0 0.0
2017-Aug-10 20:59N 27°46' W 082°38'0 0.0
2017-Aug-10 20:29N 27°46' W 082°38'0 0.0
2017-Aug-10 19:56N 27°46' W 082°38'0 0.0
2017-Aug-10 19:29N 27°46' W 082°38'0 0.0
2017-Aug-10 18:56N 27°46' W 082°38'0 0.0
2017-Aug-10 18:26N 27°46' W 082°38'0 0.0
2017-Aug-10 17:56N 27°46' W 082°38'0 0.0
2017-Aug-10 17:14N 27°46' W 082°38'0 0.0
2017-Aug-10 16:59N 27°46' W 082°38'0 0.0
2017-Aug-10 16:14N 27°46' W 082°38'0 0.0
2017-Aug-10 15:56N 27°46' W 082°38'0 0.0
2017-Aug-10 15:29N 27°46' W 082°38'0 0.0
2017-Aug-10 14:53N 27°46' W 082°38'0 0.0
2017-Aug-10 14:29N 27°46' W 082°38'0 0.0
2017-Aug-10 13:56N 27°46' W 082°38'0 0.0
2017-Aug-10 13:29N 27°46' W 082°38'0 0.0
2017-Aug-10 12:59N 27°46' W 082°38'0 0.0
2017-Aug-10 12:29N 27°46' W 082°38'0 0.0
2017-Aug-09 12:11N 27°46' W 082°38'4 3.0
2017-Aug-09 10:51N 27°42' W 082°36'0 0.0 070 / 21017.2 26.7
2017-Aug-09 09:52N 27°42' W 082°36'0 0.0 090 / 51016.6 26.8
2017-Aug-09 08:52N 27°42' W 082°36'0 0.0 180 1016.5 26.3
2017-Aug-09 07:52N 27°42' W 082°36'4 7.1 1016.4 26.2
2017-Aug-09 07:17N 27°46' W 082°38'410.3
2017-Aug-09 06:54N 27°42' W 082°36'437.9 220 / 11016.8 25.6
2017-Aug-09 06:47N 27°46' W 082°38'4 4.6
2017-Aug-09 05:55N 27°42' W 082°36'0 0.0 130 / 61017.4 27.0
2017-Aug-09 04:55N 27°42' W 082°36'0 0.0 360 / 61017.7 24.5
2017-Aug-09 03:55N 27°42' W 082°36'0 0.0 140 / 371017.0 25.7
2017-Aug-09 02:55N 27°42' W 082°36'0 0.0 350 / 51018.2 29.8
2017-Aug-09 01:56N 27°42' W 082°36'0 0.0 350 / 31017.1 30.1
2017-Aug-09 00:56N 27°42' W 082°36'0 0.0 340 / 41016.9 30.5
2017-Aug-08 22:56N 27°42' W 082°36'0 0.0 340 / 81015.7 32.1
2017-Aug-08 21:56N 27°42' W 082°36'0 0.0 250 / 31015.7 30.9
2017-Aug-08 20:56N 27°42' W 082°36'0 0.0 280 / 61015.7 31.9
2017-Aug-08 19:56N 27°42' W 082°36'0 0.0 230 / 71015.9 31.7
2017-Aug-08 18:57N 27°42' W 082°36'0 0.0 220 / 101016.4 32.2 31.2
2017-Aug-08 17:57N 27°42' W 082°36'410.0 140 / 41017.1 33.3 31.0
2017-Aug-08 17:32N 27°46' W 082°38'0 0.0
2017-Aug-08 17:28N 27°46' W 082°38'1 2.0
2017-Aug-08 17:00N 27°46' W 082°37'476.4
2017-Aug-08 16:58N 27°42' W 082°36'612.7 200 / 51017.3 30.4 31.2
2017-Aug-08 16:30N 27°47' W 082°33'4 8.3
2017-Aug-08 16:00N 27°43' W 082°32'247.5
2017-Aug-08 15:58N 27°42' W 082°30'713.9 150 / 81017.5 30.7 31.0
2017-Aug-08 15:29N 27°39' W 082°37'610.7
2017-Aug-08 14:58N 27°36' W 082°42'1110.6 140 / 61017.8 29.6 30.9
2017-Aug-08 13:58N 27°36' W 082°54'6 6.0 130 / 121017.0 29.1 30.8
2017-Aug-08 12:58N 27°30' W 082°54'1212.0 130 / 111016.9 28.8 30.7
2017-Aug-08 11:58N 27°18' W 082°54'1212.0 090 / 81016.2 28.6 30.7
2017-Aug-08 10:58N 27°06' W 082°54'1313.1 080 / 81016.0 28.5 30.5
2017-Aug-08 09:58N 26°54' W 083°00'6 6.0 090 / 101015.4 28.7 30.1
2017-Aug-08 08:58N 26°48' W 083°00'1313.1 100 / 131015.2 28.8 30.3
2017-Aug-08 07:58N 26°36' W 082°54'1212.2 100 / 111015.5 28.9 30.3
2017-Aug-08 06:59N 26°24' W 082°54'1212.0 110 / 101016.1 28.4 30.5
2017-Aug-08 05:59N 26°12' W 082°54'1212.0 120 / 61016.3 29.5 30.5
2017-Aug-08 04:59N 26°00' W 082°54'8 8.1 110 / 111017.2 29.6 30.3
2017-Aug-08 03:59N 25°54' W 082°48'1212.0 110 / 101017.5 29.8 30.5
2017-Aug-08 02:59N 25°42' W 082°48'1212.0 130 / 131017.2 29.8 30.5
2017-Aug-08 01:59N 25°30' W 082°48'1212.0 140 / 141015.8 29.7 30.5
2017-Aug-08 00:59N 25°18' W 082°48'   130 / 151015.4 29.4 30.4

Dump ship's entire track history